createdAt,value
2023-11-09T00:00:00.465Z,99106.81
2023-11-09T00:02:27.295Z,99084.09
2023-11-09T00:04:54.190Z,99110.84
2023-11-09T00:07:24.921Z,99091.28
2023-11-09T00:09:54.585Z,99084.28
2023-11-09T00:12:21.437Z,99072.25
2023-11-09T00:14:51.109Z,99094.78
2023-11-09T00:17:21.301Z,99104.00
2023-11-09T00:19:48.046Z,99069.06
2023-11-09T00:22:15.496Z,99103.47
2023-11-09T00:24:42.249Z,99101.56
2023-11-09T00:27:08.823Z,99099.31
2023-11-09T00:29:36.490Z,99068.81
2023-11-09T00:32:03.240Z,99095.56
2023-11-09T00:34:30.120Z,99086.19
2023-11-09T00:36:58.293Z,99101.00
2023-11-09T00:39:26.403Z,99095.78
2023-11-09T00:41:53.090Z,99052.69
2023-11-09T00:44:19.696Z,99083.34
2023-11-09T00:46:46.325Z,99063.09
2023-11-09T00:49:14.051Z,99084.75
2023-11-09T00:51:40.654Z,99073.03
2023-11-09T00:54:07.738Z,99051.06
2023-11-09T00:56:34.378Z,99070.63
2023-11-09T00:59:01.224Z,99031.06
2023-11-09T01:01:28.317Z,99038.75
2023-11-09T01:03:55.320Z,99080.88
2023-11-09T01:06:21.908Z,99045.78
2023-11-09T01:08:48.770Z,99014.72
2023-11-09T01:11:22.889Z,99057.63
2023-11-09T01:13:49.541Z,99062.91
2023-11-09T01:16:16.192Z,99051.41
2023-11-09T01:18:43.036Z,99070.28
2023-11-09T01:21:10.248Z,99060.88
2023-11-09T01:23:37.431Z,99063.41
2023-11-09T01:26:05.016Z,99034.06
2023-11-09T01:28:32.671Z,99043.78
2023-11-09T01:30:59.679Z,99022.94
2023-11-09T01:33:26.401Z,99054.31
2023-11-09T01:35:53.024Z,99050.91
2023-11-09T01:38:19.665Z,99084.25
2023-11-09T01:40:52.605Z,99063.53
2023-11-09T01:43:19.437Z,99056.38
2023-11-09T01:45:46.620Z,99066.56
2023-11-09T01:48:16.575Z,99065.16
2023-11-09T01:50:43.225Z,99044.78
2023-11-09T01:53:11.172Z,99056.53
2023-11-09T01:55:38.080Z,99071.94
2023-11-09T01:58:04.950Z,99043.53
2023-11-09T02:00:31.747Z,99049.28
2023-11-09T02:03:00.691Z,99058.31
2023-11-09T02:05:27.713Z,99045.47
2023-11-09T02:07:55.038Z,99068.31
2023-11-09T02:10:22.606Z,99054.03
2023-11-09T02:12:50.567Z,99039.91
2023-11-09T02:15:17.622Z,99023.84
2023-11-09T02:17:44.682Z,99044.41
2023-11-09T02:20:14.473Z,98971.28
2023-11-09T02:22:42.852Z,99009.63
2023-11-09T02:25:10.815Z,98999.00
2023-11-09T02:27:37.645Z,99004.19
2023-11-09T02:30:05.395Z,99016.94
2023-11-09T02:32:32.255Z,99002.66
2023-11-09T02:34:58.935Z,98996.19
2023-11-09T02:37:26.062Z,98977.31
2023-11-09T02:39:54.384Z,98990.50
2023-11-09T02:42:21.710Z,98963.66
2023-11-09T02:44:48.264Z,98959.47
2023-11-09T02:47:15.121Z,98977.59
2023-11-09T02:49:42.308Z,98969.19
2023-11-09T02:52:08.980Z,98969.69
2023-11-09T02:54:35.595Z,98969.31
2023-11-09T02:57:02.433Z,98968.19
2023-11-09T02:59:29.022Z,98962.16
2023-11-09T03:01:58.134Z,98988.44
2023-11-09T03:04:25.110Z,98955.59
2023-11-09T03:06:51.732Z,98963.16
2023-11-09T03:09:19.622Z,98970.16
2023-11-09T03:11:46.179Z,98986.56
2023-11-09T03:14:12.879Z,98957.31
2023-11-09T03:16:39.656Z,98967.66
2023-11-09T03:19:08.265Z,98966.13
2023-11-09T03:21:36.076Z,98954.53
2023-11-09T03:24:02.752Z,98939.31
2023-11-09T03:26:30.608Z,98957.50
2023-11-09T03:28:57.918Z,98949.28
2023-11-09T03:31:24.703Z,98944.78
2023-11-09T03:33:51.332Z,98959.31
2023-11-09T03:36:21.140Z,98941.97
2023-11-09T03:38:47.969Z,98917.81
2023-11-09T03:41:14.625Z,98951.94
2023-11-09T03:43:41.518Z,98937.94
2023-11-09T03:46:15.871Z,98945.94
2023-11-09T03:48:42.609Z,98915.75
2023-11-09T03:51:09.758Z,98933.16
2023-11-09T03:53:37.451Z,98931.94
2023-11-09T03:56:04.356Z,98944.28
2023-11-09T03:58:31.976Z,98933.63
2023-11-09T04:00:58.651Z,98870.91
2023-11-09T04:03:25.523Z,98894.13
2023-11-09T04:05:52.629Z,98928.66
2023-11-09T04:08:19.940Z,98921.78
2023-11-09T04:10:47.604Z,98915.75
2023-11-09T04:13:14.432Z,98917.44
2023-11-09T04:15:44.190Z,98891.06
2023-11-09T04:18:10.926Z,98935.50
2023-11-09T04:20:37.861Z,98911.44
2023-11-09T04:23:04.534Z,98936.50
2023-11-09T04:25:31.241Z,98928.78
2023-11-09T04:27:58.428Z,98874.88
2023-11-09T04:30:29.426Z,98916.69
2023-11-09T04:32:58.758Z,98913.66
2023-11-09T04:35:28.485Z,98921.19
2023-11-09T04:37:55.972Z,98909.91
2023-11-09T04:40:26.571Z,98921.66
2023-11-09T04:42:54.362Z,98893.25
2023-11-09T04:45:21.098Z,98919.22
2023-11-09T04:47:49.096Z,98926.91
2023-11-09T04:50:16.808Z,98902.56
2023-11-09T04:52:53.358Z,98925.16
2023-11-09T04:55:33.410Z,98888.84
2023-11-09T04:58:21.388Z,98917.13
2023-11-09T05:01:06.688Z,98911.78
2023-11-09T05:03:51.902Z,98905.91
2023-11-09T05:06:36.682Z,98860.00
2023-11-09T05:09:03.709Z,98906.78
2023-11-09T05:11:30.413Z,98880.44
2023-11-09T05:13:57.018Z,98857.28
2023-11-09T05:16:23.673Z,98889.81
2023-11-09T05:18:50.641Z,98890.50
2023-11-09T05:21:17.290Z,98887.00
2023-11-09T05:23:44.018Z,98885.34
2023-11-09T05:26:10.620Z,98916.41
2023-11-09T05:28:37.345Z,98891.25
2023-11-09T05:31:04.423Z,98884.47
2023-11-09T05:33:31.176Z,98850.81
2023-11-09T05:35:58.845Z,98919.97
2023-11-09T05:38:25.386Z,98900.78
2023-11-09T05:40:51.999Z,98937.03
2023-11-09T05:43:18.928Z,98902.38
2023-11-09T05:45:45.532Z,98915.13
2023-11-09T05:48:13.774Z,98900.81
2023-11-09T05:50:40.973Z,98896.59
2023-11-09T05:53:07.601Z,98894.03
2023-11-09T05:55:34.962Z,98894.25
2023-11-09T05:58:01.718Z,98915.75
2023-11-09T06:00:29.414Z,98864.41
2023-11-09T06:02:56.195Z,98922.34
2023-11-09T06:05:25.942Z,98911.69
2023-11-09T06:07:54.258Z,98907.66
2023-11-09T06:10:21.858Z,98893.00
2023-11-09T06:12:48.713Z,98911.78
2023-11-09T06:15:16.777Z,98918.38
2023-11-09T06:17:46.767Z,98897.94
2023-11-09T06:20:14.368Z,98926.50
2023-11-09T06:22:42.163Z,98933.53
2023-11-09T06:25:11.179Z,98932.59
2023-11-09T06:27:38.742Z,98883.19
2023-11-09T06:30:07.821Z,98933.50
2023-11-09T06:32:37.681Z,98894.13
2023-11-09T06:35:05.429Z,98914.66
2023-11-09T06:37:34.242Z,98882.50
2023-11-09T06:40:04.962Z,98928.72
2023-11-09T06:42:31.876Z,98909.47
2023-11-09T06:44:58.528Z,98859.31
2023-11-09T06:47:25.550Z,98898.13
2023-11-09T06:49:52.102Z,98873.59
2023-11-09T06:52:19.084Z,98877.88
2023-11-09T06:54:45.695Z,98875.53
2023-11-09T06:57:12.714Z,98927.88
2023-11-09T06:59:39.922Z,98920.88
2023-11-09T07:02:08.460Z,98919.56
2023-11-09T07:04:35.659Z,98914.22
2023-11-09T07:07:02.600Z,98923.50
2023-11-09T07:09:29.498Z,98937.25
2023-11-09T07:11:56.208Z,98912.94
2023-11-09T07:14:24.566Z,98936.28
2023-11-09T07:16:55.042Z,98923.75
2023-11-09T07:19:24.081Z,98919.38
2023-11-09T07:21:50.952Z,98935.47
2023-11-09T07:24:19.126Z,98899.31
2023-11-09T07:26:46.534Z,98931.53
2023-11-09T07:29:13.275Z,98923.13
2023-11-09T07:31:40.612Z,98915.63
2023-11-09T07:34:07.291Z,98864.69
2023-11-09T07:36:33.885Z,98873.53
2023-11-09T07:39:01.955Z,98929.03
2023-11-09T07:41:30.443Z,98864.19
2023-11-09T07:43:57.073Z,98861.56
2023-11-09T07:46:23.824Z,98894.03
2023-11-09T07:48:50.529Z,98889.19
2023-11-09T07:51:17.410Z,98845.97
2023-11-09T07:53:44.060Z,98919.94
2023-11-09T07:56:12.385Z,98889.31
2023-11-09T07:58:39.821Z,98916.94
2023-11-09T08:01:07.774Z,98928.00
2023-11-09T08:03:35.311Z,98920.56
2023-11-09T08:06:03.967Z,98901.31
2023-11-09T08:08:31.809Z,98905.84
2023-11-09T08:10:59.461Z,98896.75
2023-11-09T08:13:29.482Z,98906.41
2023-11-09T08:15:58.249Z,98874.59
2023-11-09T08:18:24.877Z,98879.19
2023-11-09T08:20:51.616Z,98894.72
2023-11-09T08:23:18.222Z,98922.50
2023-11-09T08:25:45.313Z,98910.16
2023-11-09T08:28:12.842Z,98939.06
2023-11-09T08:30:39.886Z,98928.56
2023-11-09T08:33:09.841Z,98884.84
2023-11-09T08:35:38.159Z,98925.19
2023-11-09T08:38:06.913Z,98930.44
2023-11-09T08:40:34.094Z,98883.78
2023-11-09T08:43:00.819Z,98920.78
2023-11-09T08:45:30.246Z,98877.72
2023-11-09T08:47:57.510Z,98936.72
2023-11-09T08:50:25.952Z,98888.91
2023-11-09T08:52:54.453Z,98934.13
2023-11-09T08:55:24.485Z,98942.28
2023-11-09T08:57:54.182Z,98887.72
2023-11-09T09:00:24.711Z,98873.84
2023-11-09T09:02:52.742Z,98860.78
2023-11-09T09:05:21.980Z,98879.50
2023-11-09T09:07:51.810Z,98937.13
2023-11-09T09:10:22.694Z,98903.03
2023-11-09T09:12:51.823Z,98902.41
2023-11-09T09:15:19.470Z,98910.31
2023-11-09T09:17:47.056Z,98922.66
2023-11-09T09:20:22.206Z,98904.97
2023-11-09T09:22:51.400Z,98876.44
2023-11-09T09:25:18.137Z,98903.81
2023-11-09T09:27:49.774Z,98808.25
2023-11-09T09:30:19.864Z,98895.28
2023-11-09T09:32:52.052Z,98890.44
2023-11-09T09:35:23.278Z,98832.78
2023-11-09T09:37:52.081Z,98893.19
2023-11-09T09:40:33.063Z,98839.84
2023-11-09T09:43:03.456Z,98864.25
2023-11-09T09:45:34.441Z,98808.44
2023-11-09T09:48:02.867Z,98905.44
2023-11-09T09:50:40.147Z,98892.34
2023-11-09T09:53:10.835Z,98857.97
2023-11-09T09:55:38.924Z,98915.28
2023-11-09T09:58:09.773Z,98829.38
2023-11-09T10:00:38.254Z,98873.16
2023-11-09T10:03:08.801Z,98900.56
2023-11-09T10:05:37.633Z,98877.50
2023-11-09T10:08:14.350Z,98848.97
2023-11-09T10:10:51.797Z,98893.91
2023-11-09T10:13:21.348Z,98885.66
2023-11-09T10:15:56.544Z,98879.88
2023-11-09T10:18:31.979Z,98834.25
2023-11-09T10:21:02.143Z,98832.88
2023-11-09T10:23:28.901Z,98860.41
2023-11-09T10:26:00.469Z,98858.72
2023-11-09T10:28:30.016Z,98825.97
2023-11-09T10:30:57.460Z,98826.59
2023-11-09T10:33:25.301Z,98840.38
2023-11-09T10:35:53.908Z,98777.63
2023-11-09T10:38:25.351Z,98800.81
2023-11-09T10:41:14.892Z,98827.38
2023-11-09T10:43:43.893Z,98828.38
2023-11-09T10:46:11.131Z,98791.03
2023-11-09T10:48:42.151Z,98765.31
2023-11-09T10:51:11.100Z,98833.63
2023-11-09T10:53:39.045Z,98825.03
2023-11-09T10:56:11.708Z,98835.09
2023-11-09T10:58:42.122Z,98818.31
2023-11-09T11:01:11.995Z,98813.72
2023-11-09T11:03:45.701Z,98761.34
2023-11-09T11:06:18.315Z,98752.94
2023-11-09T11:08:51.740Z,98801.59
2023-11-09T11:11:29.733Z,98801.75
2023-11-09T11:14:04.427Z,98786.97
2023-11-09T11:16:49.980Z,98813.25
2023-11-09T11:19:24.233Z,98804.13
2023-11-09T11:21:58.642Z,98802.63
2023-11-09T11:24:54.797Z,98814.66
2023-11-09T11:27:45.587Z,98783.19
2023-11-09T11:30:27.248Z,98810.94
2023-11-09T11:32:57.656Z,98781.53
2023-11-09T11:35:47.630Z,98763.53
2023-11-09T11:38:17.845Z,98813.97
2023-11-09T11:40:47.061Z,98768.22
2023-11-09T11:43:15.446Z,98779.56
2023-11-09T11:45:43.023Z,98806.66
2023-11-09T11:48:20.524Z,98808.19
2023-11-09T11:50:49.342Z,98806.31
2023-11-09T11:53:31.278Z,98769.16
2023-11-09T11:56:11.916Z,98759.81
2023-11-09T11:58:47.309Z,98796.22
2023-11-09T12:01:32.354Z,98799.34
2023-11-09T12:04:04.957Z,98790.78
2023-11-09T12:06:36.232Z,98787.47
2023-11-09T12:09:09.618Z,98716.06
2023-11-09T12:11:45.704Z,98772.34
2023-11-09T12:14:13.876Z,98765.78
2023-11-09T12:16:41.192Z,98781.47
2023-11-09T12:19:12.539Z,98781.13
2023-11-09T12:21:39.982Z,98725.91
2023-11-09T12:24:10.842Z,98764.06
2023-11-09T12:26:37.518Z,98763.56
2023-11-09T12:29:05.259Z,98765.28
2023-11-09T12:31:32.075Z,98778.28
2023-11-09T12:34:08.963Z,98776.94
2023-11-09T12:36:42.982Z,98720.34
2023-11-09T12:39:30.771Z,98776.22
2023-11-09T12:41:59.206Z,98736.75
2023-11-09T12:44:31.498Z,98754.16
2023-11-09T12:47:26.965Z,98777.41
2023-11-09T12:50:02.282Z,98708.06
2023-11-09T12:52:29.832Z,98702.41
2023-11-09T12:54:57.629Z,98696.47
2023-11-09T12:57:24.579Z,98760.19
2023-11-09T12:59:52.503Z,98745.31
2023-11-09T13:02:20.526Z,98756.19
2023-11-09T13:04:48.039Z,98672.34
2023-11-09T13:07:15.752Z,98759.16
2023-11-09T13:09:43.722Z,98702.34
2023-11-09T13:12:28.790Z,98676.97
2023-11-09T13:15:09.317Z,98749.81
2023-11-09T13:17:53.794Z,98753.16
2023-11-09T13:20:38.392Z,98751.31
2023-11-09T13:23:12.889Z,98697.88
2023-11-09T13:25:50.735Z,98679.13
2023-11-09T13:28:18.995Z,98653.22
2023-11-09T13:30:54.409Z,98691.19
2023-11-09T13:33:30.217Z,98741.84
2023-11-09T13:35:59.293Z,98703.56
2023-11-09T13:38:35.263Z,98689.66
2023-11-09T13:41:11.292Z,98722.25
2023-11-09T13:43:38.167Z,98727.47
2023-11-09T13:46:12.602Z,98670.16
2023-11-09T13:48:46.667Z,98616.75
2023-11-09T13:51:16.142Z,98706.31
2023-11-09T13:53:51.515Z,98643.44
2023-11-09T13:56:18.147Z,98643.09
2023-11-09T13:58:49.063Z,98610.56
2023-11-09T14:01:29.320Z,98671.00
2023-11-09T14:03:56.579Z,98633.13
2023-11-09T14:06:23.645Z,98662.69
2023-11-09T14:08:52.361Z,98626.44
2023-11-09T14:11:24.216Z,98677.53
2023-11-09T14:13:51.512Z,98684.88
2023-11-09T14:16:21.097Z,98665.81
2023-11-09T14:19:21.697Z,98608.31
2023-11-09T14:21:48.994Z,98637.88
2023-11-09T14:24:20.494Z,98623.06
2023-11-09T14:26:49.609Z,98643.09
2023-11-09T14:29:20.104Z,98629.38
2023-11-09T14:31:46.742Z,98617.34
2023-11-09T14:34:18.275Z,98636.47
2023-11-09T14:36:49.776Z,98630.22
2023-11-09T14:39:52.936Z,98688.69
2023-11-09T14:42:19.717Z,98622.69
2023-11-09T14:44:48.339Z,98630.22
2023-11-09T14:47:19.674Z,98627.50
2023-11-09T14:49:53.822Z,98591.34
2023-11-09T14:52:39.902Z,98647.78
2023-11-09T14:55:06.986Z,98619.03
2023-11-09T14:57:33.720Z,98632.56
2023-11-09T15:00:00.530Z,98591.22
2023-11-09T15:02:30.454Z,98647.88
2023-11-09T15:04:57.249Z,98587.38
2023-11-09T15:07:24.009Z,98613.91
2023-11-09T15:09:51.757Z,98623.75
2023-11-09T15:12:19.729Z,98617.91
2023-11-09T15:14:51.779Z,98667.66
2023-11-09T15:17:18.543Z,98603.66
2023-11-09T15:19:45.177Z,98612.88
2023-11-09T15:22:15.696Z,98580.38
2023-11-09T15:24:44.607Z,98662.09
2023-11-09T15:27:16.806Z,98603.19
2023-11-09T15:29:43.550Z,98630.28
2023-11-09T15:32:15.250Z,98589.47
2023-11-09T15:34:47.759Z,98622.38
2023-11-09T15:37:17.380Z,98660.03
2023-11-09T15:40:12.691Z,98585.59
2023-11-09T15:42:37.912Z,98596.31
2023-11-09T15:45:08.364Z,98510.56
2023-11-09T15:47:37.079Z,98597.69
2023-11-09T15:50:06.977Z,98623.41
2023-11-09T15:52:36.629Z,98568.06
2023-11-09T15:55:07.660Z,98627.13
2023-11-09T15:57:49.046Z,98648.38
2023-11-09T16:00:20.512Z,98544.94
2023-11-09T16:02:51.277Z,98468.72
2023-11-09T16:05:23.506Z,98579.44
2023-11-09T16:08:09.638Z,98474.69
2023-11-09T16:10:37.679Z,98588.47
2023-11-09T16:13:05.547Z,98633.78
2023-11-09T16:15:32.696Z,98551.25
2023-11-09T16:18:00.265Z,98613.06
2023-11-09T16:20:36.869Z,98633.28
2023-11-09T16:23:10.641Z,98550.97
2023-11-09T16:25:47.690Z,98559.97
2023-11-09T16:28:21.194Z,98584.16
2023-11-09T16:30:48.480Z,98591.66
2023-11-09T16:33:15.374Z,98577.31
2023-11-09T16:35:42.359Z,98617.56
2023-11-09T16:38:12.696Z,98579.50
2023-11-09T16:40:39.906Z,98575.78
2023-11-09T16:43:09.061Z,98554.59
2023-11-09T16:45:36.229Z,98603.88
2023-11-09T16:48:04.731Z,98595.25
2023-11-09T16:50:31.710Z,98580.72
2023-11-09T16:52:58.594Z,98536.00
2023-11-09T16:55:25.370Z,98598.31
2023-11-09T16:57:52.711Z,98583.72
2023-11-09T17:00:19.859Z,98571.59
2023-11-09T17:02:47.958Z,98568.69
2023-11-09T17:05:15.276Z,98591.56
2023-11-09T17:07:45.252Z,98586.81
2023-11-09T17:10:13.954Z,98579.91
2023-11-09T17:12:41.630Z,98623.22
2023-11-09T17:15:11.519Z,98567.53
2023-11-09T17:17:42.473Z,98579.91
2023-11-09T17:20:11.356Z,98585.19
2023-11-09T17:22:38.861Z,98580.81
2023-11-09T17:25:06.783Z,98573.44
2023-11-09T17:27:33.536Z,98647.66
2023-11-09T17:30:05.637Z,98663.53
2023-11-09T17:32:32.487Z,98608.16
2023-11-09T17:34:59.307Z,98570.94
2023-11-09T17:37:26.028Z,98599.69
2023-11-09T17:39:52.764Z,98568.28
2023-11-09T17:42:19.432Z,98550.25
2023-11-09T17:44:46.325Z,98575.84
2023-11-09T17:47:14.587Z,98620.13
2023-11-09T17:49:41.292Z,98565.44
2023-11-09T17:52:08.775Z,98563.47
2023-11-09T17:54:35.408Z,98605.41
2023-11-09T17:57:04.457Z,98581.19
2023-11-09T17:59:31.173Z,98559.31
2023-11-09T18:01:58.198Z,98573.53
2023-11-09T18:04:26.754Z,98577.09
2023-11-09T18:06:53.430Z,98574.81
2023-11-09T18:09:21.196Z,98551.78
2023-11-09T18:11:50.573Z,98529.66
2023-11-09T18:14:21.044Z,98581.81
2023-11-09T18:16:51.189Z,98532.09
2023-11-09T18:19:18.584Z,98567.53
2023-11-09T18:21:48.417Z,98543.81
2023-11-09T18:24:15.438Z,98555.84
2023-11-09T18:26:42.965Z,98559.94
2023-11-09T18:29:09.814Z,98605.22
2023-11-09T18:31:36.589Z,98577.25
2023-11-09T18:34:03.582Z,98574.59
2023-11-09T18:36:31.992Z,98589.91
2023-11-09T18:39:00.225Z,98537.06
2023-11-09T18:41:28.164Z,98568.69
2023-11-09T18:43:58.113Z,98634.38
2023-11-09T18:46:25.205Z,98608.00
2023-11-09T18:48:52.069Z,98582.31
2023-11-09T18:51:19.838Z,98559.28
2023-11-09T18:53:47.398Z,98608.41
2023-11-09T18:56:18.014Z,98592.59
2023-11-09T18:58:44.891Z,98599.31
2023-11-09T19:01:12.031Z,98601.47
2023-11-09T19:06:08.565Z,98578.94
2023-11-09T19:08:36.998Z,98593.69
2023-11-09T19:11:06.862Z,98540.16
2023-11-09T19:13:33.830Z,98561.44
2023-11-09T19:16:00.545Z,98579.69
2023-11-09T19:18:27.358Z,98538.91
2023-11-09T19:23:26.843Z,98561.25
2023-11-09T19:25:55.087Z,98542.47
2023-11-09T19:28:25.822Z,98544.06
2023-11-09T19:30:55.555Z,98537.72
2023-11-09T19:33:22.270Z,98538.97
2023-11-09T19:35:48.886Z,98543.53
2023-11-09T19:38:15.568Z,98545.91
2023-11-09T19:40:48.683Z,98538.78
2023-11-09T19:43:15.599Z,98536.56
2023-11-09T19:45:44.196Z,98544.84
2023-11-09T19:48:13.425Z,98527.66
2023-11-09T19:50:40.877Z,98542.84
2023-11-09T19:53:10.797Z,98512.03
2023-11-09T19:55:37.736Z,98510.03
2023-11-09T19:58:05.512Z,98519.63
2023-11-09T20:00:32.861Z,98543.78
2023-11-09T20:03:04.548Z,98507.06
2023-11-09T20:05:34.410Z,98526.69
2023-11-09T20:08:01.034Z,98504.97
2023-11-09T20:10:28.075Z,98533.75
2023-11-09T20:12:54.872Z,98513.47
2023-11-09T20:15:27.761Z,98533.19
2023-11-09T20:17:55.349Z,98539.50
2023-11-09T20:20:22.506Z,98548.88
2023-11-09T20:22:49.329Z,98515.47
2023-11-09T20:25:16.281Z,98556.13
2023-11-09T20:27:43.059Z,98483.69
2023-11-09T20:30:14.542Z,98515.19
2023-11-09T20:32:43.469Z,98577.72
2023-11-09T20:35:11.430Z,98517.50
2023-11-09T20:37:40.855Z,98519.09
2023-11-09T20:40:11.641Z,98560.53
2023-11-09T20:42:40.507Z,98520.63
2023-11-09T20:45:09.714Z,98529.78
2023-11-09T20:47:40.476Z,98548.31
2023-11-09T20:50:15.260Z,98559.34
2023-11-09T20:52:45.486Z,98502.47
2023-11-09T20:55:18.815Z,98548.72
2023-11-09T20:57:46.254Z,98540.88
2023-11-09T21:00:14.323Z,98519.19
2023-11-09T21:02:42.466Z,98533.28
2023-11-09T21:05:10.490Z,98486.56
2023-11-09T21:07:39.442Z,98514.53
2023-11-09T21:10:12.957Z,98475.94
2023-11-09T21:12:42.917Z,98499.47
2023-11-09T21:15:11.810Z,98495.78
2023-11-09T21:17:40.778Z,98442.78
2023-11-09T21:20:08.423Z,98442.78
2023-11-09T21:22:35.053Z,98434.31
2023-11-09T21:25:01.949Z,98470.03
2023-11-09T21:27:29.081Z,98483.44
2023-11-09T21:29:55.748Z,98473.22
2023-11-09T21:32:22.632Z,98484.50
2023-11-09T21:34:49.717Z,98460.94
2023-11-09T21:37:16.475Z,98431.56
2023-11-09T21:39:45.957Z,98458.53
2023-11-09T21:42:13.061Z,98439.63
2023-11-09T21:44:40.339Z,98423.41
2023-11-09T21:47:07.208Z,98468.66
2023-11-09T21:49:36.573Z,98428.38
2023-11-09T21:52:05.077Z,98460.19
2023-11-09T21:54:31.696Z,98436.09
2023-11-09T21:56:59.771Z,98412.75
2023-11-09T21:59:29.993Z,98444.69
2023-11-09T22:01:56.987Z,98469.44
2023-11-09T22:04:23.819Z,98459.31
2023-11-09T22:06:53.561Z,98433.22
2023-11-09T22:09:22.239Z,98452.41
2023-11-09T22:11:49.658Z,98478.56
2023-11-09T22:14:16.608Z,98425.25
2023-11-09T22:16:43.466Z,98456.97
2023-11-09T22:19:10.503Z,98447.81
2023-11-09T22:21:37.839Z,98436.78
2023-11-09T22:24:05.102Z,98417.75
2023-11-09T22:26:34.050Z,98453.19
2023-11-09T22:29:00.735Z,98407.91
2023-11-09T22:31:27.378Z,98402.56
2023-11-09T22:33:54.132Z,98380.22
2023-11-09T22:36:20.949Z,98430.94
2023-11-09T22:38:47.779Z,98393.03
2023-11-09T22:41:14.439Z,98367.44
2023-11-09T22:43:41.083Z,98366.19
2023-11-09T22:46:07.870Z,98366.34
2023-11-09T22:48:34.498Z,98358.06
2023-11-09T22:51:02.030Z,98411.34
2023-11-09T22:53:28.666Z,98408.81
2023-11-09T22:55:55.972Z,98375.09
2023-11-09T22:58:24.440Z,98369.72
2023-11-09T23:00:51.936Z,98354.66
2023-11-09T23:03:19.508Z,98337.59
2023-11-09T23:05:47.335Z,98381.84
2023-11-09T23:08:17.217Z,98383.03
2023-11-09T23:10:45.460Z,98353.69
2023-11-09T23:13:13.887Z,98393.81
2023-11-09T23:15:40.663Z,98375.63
2023-11-09T23:18:07.718Z,98348.78
2023-11-09T23:20:36.056Z,98364.13
2023-11-09T23:23:03.229Z,98295.06
2023-11-09T23:25:30.182Z,98317.50
2023-11-09T23:27:57.397Z,98332.06
2023-11-09T23:30:24.356Z,98322.50
2023-11-09T23:32:51.032Z,98305.56
2023-11-09T23:35:18.280Z,98334.78
2023-11-09T23:37:48.386Z,98350.13
2023-11-09T23:40:16.042Z,98328.28
2023-11-09T23:42:43.343Z,98341.19
2023-11-09T23:45:10.632Z,98339.03
2023-11-09T23:47:40.772Z,98305.22
2023-11-09T23:50:09.312Z,98328.50
2023-11-09T23:52:36.507Z,98296.66
2023-11-09T23:55:04.653Z,98328.00
2023-11-09T23:57:32.678Z,98312.06
2023-11-09T23:59:59.433Z,98252.44
